sensor_id;sensor_type;location;lat;lon;timestamp;P1;durP1;ratioP1;P2;durP2;ratioP2
7475;SDS011;3779;49.216;8.650;2024-03-29T01:06:55;1.73;;;1.10;;
7475;SDS011;3779;49.216;8.650;2024-03-29T01:09:41;1.73;;;1.20;;
7475;SDS011;3779;49.216;8.650;2024-03-29T01:12:28;1.50;;;1.30;;
7475;SDS011;3779;49.216;8.650;2024-03-29T01:15:14;1.80;;;1.33;;
7475;SDS011;3779;49.216;8.650;2024-03-29T01:18:00;6.70;;;1.27;;
7475;SDS011;3779;49.216;8.650;2024-03-29T01:20:46;1.45;;;1.15;;
7475;SDS011;3779;49.216;8.650;2024-03-29T01:23:31;1.97;;;1.03;;
7475;SDS011;3779;49.216;8.650;2024-03-29T01:26:17;2.40;;;1.20;;
7475;SDS011;3779;49.216;8.650;2024-03-29T01:29:04;2.30;;;1.07;;
7475;SDS011;3779;49.216;8.650;2024-03-29T01:31:50;1.97;;;1.10;;
7475;SDS011;3779;49.216;8.650;2024-03-29T01:34:35;1.87;;;1.10;;
7475;SDS011;3779;49.216;8.650;2024-03-29T01:37:21;3.57;;;1.20;;
7475;SDS011;3779;49.216;8.650;2024-03-29T01:40:07;1.77;;;1.17;;
7475;SDS011;3779;49.216;8.650;2024-03-29T01:42:53;3.63;;;1.20;;
7475;SDS011;3779;49.216;8.650;2024-03-29T01:45:39;1.20;;;1.10;;
7475;SDS011;3779;49.216;8.650;2024-03-29T01:48:27;1.27;;;0.90;;
7475;SDS011;3779;49.216;8.650;2024-03-29T01:51:13;1.13;;;1.00;;
7475;SDS011;3779;49.216;8.650;2024-03-29T01:54:00;1.73;;;1.00;;
7475;SDS011;3779;49.216;8.650;2024-03-29T01:56:46;2.57;;;1.27;;
7475;SDS011;3779;49.216;8.650;2024-03-29T01:59:33;1.30;;;1.07;;
7475;SDS011;3779;49.216;8.650;2024-03-29T02:02:19;1.20;;;1.10;;
7475;SDS011;3779;49.216;8.650;2024-03-29T02:05:05;1.10;;;1.00;;
7475;SDS011;3779;49.216;8.650;2024-03-29T02:07:51;1.40;;;1.20;;
7475;SDS011;3779;49.216;8.650;2024-03-29T02:10:39;1.50;;;1.20;;
7475;SDS011;3779;49.216;8.650;2024-03-29T02:13:25;1.57;;;1.00;;
7475;SDS011;3779;49.216;8.650;2024-03-29T02:30:52;3.27;;;1.10;;
7475;SDS011;3779;49.216;8.650;2024-03-29T03:28:26;1.30;;;1.03;;
7475;SDS011;3779;49.216;8.650;2024-03-29T03:31:12;1.27;;;1.10;;
7475;SDS011;3779;49.216;8.650;2024-03-29T03:33:58;1.93;;;1.30;;
7475;SDS011;3779;49.216;8.650;2024-03-29T03:36:44;1.53;;;1.40;;
7475;SDS011;3779;49.216;8.650;2024-03-29T03:39:29;2.33;;;1.00;;
7475;SDS011;3779;49.216;8.650;2024-03-29T03:42:15;1.07;;;0.97;;
7475;SDS011;3779;49.216;8.650;2024-03-29T03:45:01;2.17;;;1.10;;
7475;SDS011;3779;49.216;8.650;2024-03-29T03:47:49;0.93;;;0.93;;
7475;SDS011;3779;49.216;8.650;2024-03-29T03:50:34;1.33;;;0.97;;
7475;SDS011;3779;49.216;8.650;2024-03-29T03:53:20;1.60;;;0.93;;
7475;SDS011;3779;49.216;8.650;2024-03-29T03:56:06;1.17;;;1.07;;
7475;SDS011;3779;49.216;8.650;2024-03-29T03:58:52;1.10;;;1.00;;
7475;SDS011;3779;49.216;8.650;2024-03-29T04:01:38;1.20;;;1.10;;
7475;SDS011;3779;49.216;8.650;2024-03-29T04:04:24;3.07;;;1.07;;
7475;SDS011;3779;49.216;8.650;2024-03-29T04:07:10;1.50;;;1.00;;
7475;SDS011;3779;49.216;8.650;2024-03-29T04:09:55;2.60;;;1.20;;
7475;SDS011;3779;49.216;8.650;2024-03-29T04:12:41;1.37;;;0.80;;
7475;SDS011;3779;49.216;8.650;2024-03-29T04:15:27;1.10;;;1.00;;
7475;SDS011;3779;49.216;8.650;2024-03-29T04:18:13;1.30;;;1.10;;
7475;SDS011;3779;49.216;8.650;2024-03-29T04:20:59;1.73;;;1.20;;
7475;SDS011;3779;49.216;8.650;2024-03-29T04:23:47;1.27;;;1.00;;
7475;SDS011;3779;49.216;8.650;2024-03-29T04:26:34;1.90;;;1.13;;
7475;SDS011;3779;49.216;8.650;2024-03-29T04:29:19;1.10;;;1.00;;
7475;SDS011;3779;49.216;8.650;2024-03-29T05:46:04;1.27;;;1.10;;
7475;SDS011;3779;49.216;8.650;2024-03-29T05:48:50;1.30;;;0.93;;
7475;SDS011;3779;49.216;8.650;2024-03-29T05:51:36;1.10;;;1.00;;
7475;SDS011;3779;49.216;8.650;2024-03-29T05:54:21;1.20;;;1.10;;
7475;SDS011;3779;49.216;8.650;2024-03-29T05:57:08;1.03;;;1.00;;
7475;SDS011;3779;49.216;8.650;2024-03-29T05:59:54;1.40;;;1.00;;
7475;SDS011;3779;49.216;8.650;2024-03-29T06:02:40;1.17;;;1.00;;
7475;SDS011;3779;49.216;8.650;2024-03-29T06:05:28;1.30;;;0.90;;
7475;SDS011;3779;49.216;8.650;2024-03-29T06:08:14;1.10;;;1.00;;
7475;SDS011;3779;49.216;8.650;2024-03-29T06:10:59;0.83;;;0.83;;
7475;SDS011;3779;49.216;8.650;2024-03-29T06:13:46;0.90;;;0.90;;
7475;SDS011;3779;49.216;8.650;2024-03-29T06:16:38;1.00;;;0.97;;
7475;SDS011;3779;49.216;8.650;2024-03-29T06:19:42;1.00;;;1.00;;
7475;SDS011;3779;49.216;8.650;2024-03-29T06:22:28;1.20;;;1.10;;
7475;SDS011;3779;49.216;8.650;2024-03-29T06:25:16;2.37;;;1.00;;
7475;SDS011;3779;49.216;8.650;2024-03-29T06:28:02;0.90;;;0.90;;
7475;SDS011;3779;49.216;8.650;2024-03-29T06:30:48;1.03;;;1.00;;
7475;SDS011;3779;49.216;8.650;2024-03-29T06:33:34;0.87;;;0.87;;
7475;SDS011;3779;49.216;8.650;2024-03-29T06:36:20;0.80;;;0.80;;
7475;SDS011;3779;49.216;8.650;2024-03-29T06:39:06;0.70;;;0.70;;
7475;SDS011;3779;49.216;8.650;2024-03-29T06:41:52;0.83;;;0.83;;
7475;SDS011;3779;49.216;8.650;2024-03-29T06:44:37;1.10;;;1.00;;
7475;SDS011;3779;49.216;8.650;2024-03-29T06:47:27;1.00;;;0.90;;
7475;SDS011;3779;49.216;8.650;2024-03-29T06:50:14;1.53;;;1.00;;
7475;SDS011;3779;49.216;8.650;2024-03-29T06:53:00;1.50;;;0.93;;
7475;SDS011;3779;49.216;8.650;2024-03-29T08:38:13;2.40;;;1.60;;
7475;SDS011;3779;49.216;8.650;2024-03-29T09:13:23;2.43;;;1.40;;
7475;SDS011;3779;49.216;8.650;2024-03-29T09:16:01;1.67;;;1.30;;
7475;SDS011;3779;49.216;8.650;2024-03-29T09:18:47;2.00;;;1.40;;
7475;SDS011;3779;49.216;8.650;2024-03-29T09:21:32;1.30;;;1.20;;
7475;SDS011;3779;49.216;8.650;2024-03-29T09:24:18;1.43;;;1.33;;
7475;SDS011;3779;49.216;8.650;2024-03-29T09:27:07;2.03;;;1.10;;
7475;SDS011;3779;49.216;8.650;2024-03-29T09:29:54;1.50;;;1.20;;
7475;SDS011;3779;49.216;8.650;2024-03-29T09:32:41;3.37;;;1.50;;
7475;SDS011;3779;49.216;8.650;2024-03-29T09:35:27;2.30;;;1.47;;
7475;SDS011;3779;49.216;8.650;2024-03-29T09:38:13;1.80;;;1.20;;
7475;SDS011;3779;49.216;8.650;2024-03-29T09:43:59;2.80;;;1.57;;
7475;SDS011;3779;49.216;8.650;2024-03-29T09:46:48;3.80;;;1.50;;
7475;SDS011;3779;49.216;8.650;2024-03-29T09:49:35;3.13;;;1.30;;
7475;SDS011;3779;49.216;8.650;2024-03-29T09:52:21;2.30;;;1.20;;
7475;SDS011;3779;49.216;8.650;2024-03-29T09:55:07;1.63;;;1.20;;
7475;SDS011;3779;49.216;8.650;2024-03-29T09:57:53;1.37;;;1.27;;
7475;SDS011;3779;49.216;8.650;2024-03-29T10:00:40;1.40;;;1.20;;
7475;SDS011;3779;49.216;8.650;2024-03-29T10:03:26;1.40;;;1.30;;
7475;SDS011;3779;49.216;8.650;2024-03-29T10:06:14;1.33;;;1.20;;
7475;SDS011;3779;49.216;8.650;2024-03-29T10:09:02;1.90;;;1.40;;
7475;SDS011;3779;49.216;8.650;2024-03-29T10:11:49;1.60;;;1.40;;
7475;SDS011;3779;49.216;8.650;2024-03-29T10:14:44;1.47;;;1.30;;
7475;SDS011;3779;49.216;8.650;2024-03-29T10:17:34;1.33;;;1.10;;
7475;SDS011;3779;49.216;8.650;2024-03-29T10:20:23;1.93;;;1.23;;
7475;SDS011;3779;49.216;8.650;2024-03-29T10:23:12;3.87;;;1.43;;
7475;SDS011;3779;49.216;8.650;2024-03-29T11:36:10;1.53;;;1.00;;
7475;SDS011;3779;49.216;8.650;2024-03-29T11:38:57;1.80;;;1.17;;
7475;SDS011;3779;49.216;8.650;2024-03-29T11:41:46;2.13;;;1.20;;
7475;SDS011;3779;49.216;8.650;2024-03-29T11:44:33;1.60;;;1.30;;
7475;SDS011;3779;49.216;8.650;2024-03-29T11:47:19;1.80;;;1.37;;
7475;SDS011;3779;49.216;8.650;2024-03-29T11:50:06;2.13;;;1.20;;
7475;SDS011;3779;49.216;8.650;2024-03-29T11:52:53;1.67;;;1.25;;
7475;SDS011;3779;49.216;8.650;2024-03-29T11:55:39;1.38;;;1.20;;
7475;SDS011;3779;49.216;8.650;2024-03-29T11:58:25;2.22;;;1.33;;
7475;SDS011;3779;49.216;8.650;2024-03-29T12:01:13;1.87;;;1.30;;
7475;SDS011;3779;49.216;8.650;2024-03-29T12:03:59;1.30;;;1.20;;
7475;SDS011;3779;49.216;8.650;2024-03-29T12:06:45;1.90;;;1.00;;
7475;SDS011;3779;49.216;8.650;2024-03-29T12:09:31;1.30;;;1.00;;
7475;SDS011;3779;49.216;8.650;2024-03-29T12:12:17;1.30;;;1.03;;
7475;SDS011;3779;49.216;8.650;2024-03-29T12:15:03;1.70;;;1.30;;
7475;SDS011;3779;49.216;8.650;2024-03-29T12:17:54;2.27;;;2.00;;
7475;SDS011;3779;49.216;8.650;2024-03-29T12:20:43;2.50;;;1.60;;
7475;SDS011;3779;49.216;8.650;2024-03-29T12:23:31;2.40;;;1.90;;
7475;SDS011;3779;49.216;8.650;2024-03-29T12:26:17;1.40;;;1.27;;
7475;SDS011;3779;49.216;8.650;2024-03-29T12:29:07;1.20;;;1.10;;
7475;SDS011;3779;49.216;8.650;2024-03-29T12:31:58;1.93;;;1.30;;
7475;SDS011;3779;49.216;8.650;2024-03-29T12:34:44;2.42;;;1.15;;
7475;SDS011;3779;49.216;8.650;2024-03-29T12:37:30;2.03;;;1.23;;
7475;SDS011;3779;49.216;8.650;2024-03-29T12:40:19;2.10;;;1.40;;
7475;SDS011;3779;49.216;8.650;2024-03-29T12:43:07;1.33;;;1.10;;
7475;SDS011;3779;49.216;8.650;2024-03-29T13:39:45;1.20;;;1.10;;
7475;SDS011;3779;49.216;8.650;2024-03-29T14:06:40;3.03;;;2.67;;
7475;SDS011;3779;49.216;8.650;2024-03-29T14:09:26;2.90;;;2.70;;
7475;SDS011;3779;49.216;8.650;2024-03-29T14:12:11;4.10;;;2.43;;
7475;SDS011;3779;49.216;8.650;2024-03-29T14:14:58;5.07;;;2.20;;
7475;SDS011;3779;49.216;8.650;2024-03-29T14:17:46;3.87;;;2.50;;
7475;SDS011;3779;49.216;8.650;2024-03-29T14:20:31;3.10;;;2.55;;
7475;SDS011;3779;49.216;8.650;2024-03-29T14:23:17;3.60;;;2.47;;
7475;SDS011;3779;49.216;8.650;2024-03-29T14:26:07;5.70;;;2.97;;
7475;SDS011;3779;49.216;8.650;2024-03-29T14:28:53;3.60;;;2.63;;
7475;SDS011;3779;49.216;8.650;2024-03-29T14:31:39;3.80;;;2.67;;
7475;SDS011;3779;49.216;8.650;2024-03-29T14:34:24;3.03;;;2.60;;
7475;SDS011;3779;49.216;8.650;2024-03-29T14:37:11;2.33;;;2.00;;
7475;SDS011;3779;49.216;8.650;2024-03-29T14:40:00;3.67;;;2.30;;
7475;SDS011;3779;49.216;8.650;2024-03-29T14:42:46;2.50;;;2.27;;
7475;SDS011;3779;49.216;8.650;2024-03-29T14:45:32;3.20;;;2.90;;
7475;SDS011;3779;49.216;8.650;2024-03-29T14:48:18;2.63;;;2.27;;
7475;SDS011;3779;49.216;8.650;2024-03-29T14:51:04;2.53;;;2.30;;
7475;SDS011;3779;49.216;8.650;2024-03-29T14:53:50;3.53;;;2.03;;
7475;SDS011;3779;49.216;8.650;2024-03-29T14:56:36;3.80;;;2.30;;
7475;SDS011;3779;49.216;8.650;2024-03-29T14:59:21;3.37;;;2.43;;
7475;SDS011;3779;49.216;8.650;2024-03-29T15:02:07;2.50;;;2.30;;
7475;SDS011;3779;49.216;8.650;2024-03-29T15:04:53;3.93;;;2.20;;
7475;SDS011;3779;49.216;8.650;2024-03-29T15:07:39;1.50;;;1.40;;
7475;SDS011;3779;49.216;8.650;2024-03-29T15:10:24;2.43;;;2.23;;
7475;SDS011;3779;49.216;8.650;2024-03-29T15:13:10;2.80;;;2.50;;
7475;SDS011;3779;49.216;8.650;2024-03-29T15:15:57;2.53;;;2.10;;
7475;SDS011;3779;49.216;8.650;2024-03-29T15:18:43;2.70;;;2.40;;
7475;SDS011;3779;49.216;8.650;2024-03-29T15:21:29;2.50;;;2.23;;
7475;SDS011;3779;49.216;8.650;2024-03-29T15:24:16;2.43;;;1.93;;
7475;SDS011;3779;49.216;8.650;2024-03-29T15:27:02;3.58;;;2.58;;
7475;SDS011;3779;49.216;8.650;2024-03-29T15:29:48;4.87;;;2.87;;
7475;SDS011;3779;49.216;8.650;2024-03-29T15:32:34;1.37;;;1.23;;
7475;SDS011;3779;49.216;8.650;2024-03-29T15:35:21;2.00;;;1.60;;
7475;SDS011;3779;49.216;8.650;2024-03-29T15:38:07;4.27;;;2.90;;
7475;SDS011;3779;49.216;8.650;2024-03-29T15:40:57;2.77;;;2.27;;
7475;SDS011;3779;49.216;8.650;2024-03-29T15:43:43;2.10;;;1.90;;
7475;SDS011;3779;49.216;8.650;2024-03-29T15:46:30;2.80;;;2.10;;
7475;SDS011;3779;49.216;8.650;2024-03-29T15:49:17;4.47;;;2.60;;
7475;SDS011;3779;49.216;8.650;2024-03-29T15:52:03;3.33;;;2.70;;
7475;SDS011;3779;49.216;8.650;2024-03-29T15:54:48;3.15;;;2.63;;
7475;SDS011;3779;49.216;8.650;2024-03-29T15:57:34;2.53;;;1.67;;
7475;SDS011;3779;49.216;8.650;2024-03-29T16:00:20;3.28;;;2.97;;
7475;SDS011;3779;49.216;8.650;2024-03-29T16:03:13;3.30;;;3.00;;
7475;SDS011;3779;49.216;8.650;2024-03-29T16:05:59;3.05;;;2.40;;
7475;SDS011;3779;49.216;8.650;2024-03-29T16:08:45;3.17;;;2.70;;
7475;SDS011;3779;49.216;8.650;2024-03-29T16:11:34;2.70;;;2.47;;
7475;SDS011;3779;49.216;8.650;2024-03-29T16:14:24;4.18;;;3.17;;
7475;SDS011;3779;49.216;8.650;2024-03-29T16:17:13;4.10;;;3.60;;
7475;SDS011;3779;49.216;8.650;2024-03-29T16:19:59;4.60;;;3.97;;
7475;SDS011;3779;49.216;8.650;2024-03-29T16:22:45;3.87;;;3.40;;
7475;SDS011;3779;49.216;8.650;2024-03-29T16:25:32;4.25;;;3.38;;
7475;SDS011;3779;49.216;8.650;2024-03-29T16:28:19;3.33;;;2.70;;
7475;SDS011;3779;49.216;8.650;2024-03-29T16:31:07;3.17;;;2.83;;
7475;SDS011;3779;49.216;8.650;2024-03-29T16:33:52;3.03;;;2.60;;
7475;SDS011;3779;49.216;8.650;2024-03-29T16:36:38;3.47;;;2.83;;
7475;SDS011;3779;49.216;8.650;2024-03-29T16:39:24;3.10;;;2.90;;
7475;SDS011;3779;49.216;8.650;2024-03-29T16:42:10;3.00;;;2.70;;
7475;SDS011;3779;49.216;8.650;2024-03-29T16:44:55;4.00;;;2.80;;
7475;SDS011;3779;49.216;8.650;2024-03-29T16:47:41;2.20;;;2.00;;
7475;SDS011;3779;49.216;8.650;2024-03-29T16:50:27;3.60;;;3.20;;
7475;SDS011;3779;49.216;8.650;2024-03-29T16:53:12;3.40;;;3.10;;
7475;SDS011;3779;49.216;8.650;2024-03-29T16:55:58;4.70;;;3.60;;
7475;SDS011;3779;49.216;8.650;2024-03-29T16:58:44;7.83;;;3.37;;
7475;SDS011;3779;49.216;8.650;2024-03-29T17:01:29;5.60;;;4.82;;
7475;SDS011;3779;49.216;8.650;2024-03-29T17:04:15;3.77;;;3.47;;
7475;SDS011;3779;49.216;8.650;2024-03-29T17:07:01;5.23;;;3.40;;
7475;SDS011;3779;49.216;8.650;2024-03-29T17:09:47;3.47;;;2.93;;
7475;SDS011;3779;49.216;8.650;2024-03-29T17:12:32;4.00;;;3.60;;
7475;SDS011;3779;49.216;8.650;2024-03-29T17:15:19;4.87;;;3.93;;
7475;SDS011;3779;49.216;8.650;2024-03-29T17:18:05;4.10;;;3.50;;
7475;SDS011;3779;49.216;8.650;2024-03-29T17:20:51;2.17;;;1.97;;
7475;SDS011;3779;49.216;8.650;2024-03-29T17:23:37;4.77;;;4.20;;
7475;SDS011;3779;49.216;8.650;2024-03-29T17:26:22;6.22;;;4.45;;
7475;SDS011;3779;49.216;8.650;2024-03-29T17:29:08;4.22;;;3.75;;
7475;SDS011;3779;49.216;8.650;2024-03-29T17:31:54;3.70;;;3.20;;
7475;SDS011;3779;49.216;8.650;2024-03-29T17:34:40;3.23;;;2.93;;
7475;SDS011;3779;49.216;8.650;2024-03-29T17:37:26;3.27;;;2.70;;
7475;SDS011;3779;49.216;8.650;2024-03-29T17:40:11;4.90;;;2.70;;
7475;SDS011;3779;49.216;8.650;2024-03-29T17:42:57;3.47;;;2.80;;
7475;SDS011;3779;49.216;8.650;2024-03-29T18:58:06;3.63;;;2.50;;
7475;SDS011;3779;49.216;8.650;2024-03-29T19:00:51;7.07;;;4.57;;
7475;SDS011;3779;49.216;8.650;2024-03-29T19:03:37;5.13;;;3.40;;
7475;SDS011;3779;49.216;8.650;2024-03-29T19:06:24;2.97;;;2.63;;
7475;SDS011;3779;49.216;8.650;2024-03-29T19:09:12;3.20;;;2.73;;
7475;SDS011;3779;49.216;8.650;2024-03-29T19:11:57;4.53;;;2.40;;
7475;SDS011;3779;49.216;8.650;2024-03-29T19:14:43;2.60;;;2.30;;
7475;SDS011;3779;49.216;8.650;2024-03-29T19:17:29;2.93;;;2.30;;
7475;SDS011;3779;49.216;8.650;2024-03-29T19:20:15;2.47;;;2.23;;
7475;SDS011;3779;49.216;8.650;2024-03-29T19:23:00;2.93;;;2.30;;
7475;SDS011;3779;49.216;8.650;2024-03-29T19:25:46;2.73;;;2.40;;
7475;SDS011;3779;49.216;8.650;2024-03-29T19:28:32;2.40;;;2.10;;
7475;SDS011;3779;49.216;8.650;2024-03-29T19:31:18;2.23;;;1.90;;
7475;SDS011;3779;49.216;8.650;2024-03-29T19:34:03;3.43;;;2.20;;
7475;SDS011;3779;49.216;8.650;2024-03-29T19:36:49;3.07;;;2.27;;
7475;SDS011;3779;49.216;8.650;2024-03-29T19:39:44;3.70;;;2.00;;
7475;SDS011;3779;49.216;8.650;2024-03-29T19:42:29;2.50;;;2.30;;
7475;SDS011;3779;49.216;8.650;2024-03-29T19:45:15;2.40;;;2.20;;
7475;SDS011;3779;49.216;8.650;2024-03-29T19:48:01;3.17;;;2.20;;
7475;SDS011;3779;49.216;8.650;2024-03-29T19:50:47;2.10;;;1.90;;
7475;SDS011;3779;49.216;8.650;2024-03-29T19:53:33;4.23;;;2.43;;
7475;SDS011;3779;49.216;8.650;2024-03-29T19:56:19;3.57;;;2.43;;
7475;SDS011;3779;49.216;8.650;2024-03-29T19:59:08;3.73;;;2.50;;
7475;SDS011;3779;49.216;8.650;2024-03-29T20:01:54;3.17;;;2.50;;
7475;SDS011;3779;49.216;8.650;2024-03-29T20:04:39;3.83;;;2.37;;
7475;SDS011;3779;49.216;8.650;2024-03-29T20:07:25;3.23;;;1.90;;
7475;SDS011;3779;49.216;8.650;2024-03-29T20:10:11;2.60;;;2.20;;
7475;SDS011;3779;49.216;8.650;2024-03-29T20:12:57;2.47;;;2.00;;
7475;SDS011;3779;49.216;8.650;2024-03-29T20:15:45;2.50;;;2.30;;
7475;SDS011;3779;49.216;8.650;2024-03-29T20:18:31;2.87;;;2.40;;
7475;SDS011;3779;49.216;8.650;2024-03-29T20:21:17;4.13;;;2.50;;
7475;SDS011;3779;49.216;8.650;2024-03-29T20:24:03;2.60;;;2.40;;
7475;SDS011;3779;49.216;8.650;2024-03-29T20:26:50;3.40;;;3.10;;
7475;SDS011;3779;49.216;8.650;2024-03-29T20:29:38;3.50;;;3.10;;
7475;SDS011;3779;49.216;8.650;2024-03-29T20:32:24;3.67;;;3.20;;
7475;SDS011;3779;49.216;8.650;2024-03-29T20:35:10;3.43;;;3.00;;
7475;SDS011;3779;49.216;8.650;2024-03-29T20:37:56;4.33;;;2.60;;
7475;SDS011;3779;49.216;8.650;2024-03-29T20:40:42;2.67;;;2.47;;
7475;SDS011;3779;49.216;8.650;2024-03-29T20:43:30;3.27;;;2.70;;
7475;SDS011;3779;49.216;8.650;2024-03-29T20:46:17;2.93;;;2.60;;
7475;SDS011;3779;49.216;8.650;2024-03-29T20:49:02;3.30;;;2.40;;
7475;SDS011;3779;49.216;8.650;2024-03-29T20:51:49;3.30;;;3.00;;
7475;SDS011;3779;49.216;8.650;2024-03-29T20:54:36;3.30;;;3.00;;
7475;SDS011;3779;49.216;8.650;2024-03-29T20:57:22;2.70;;;2.50;;
7475;SDS011;3779;49.216;8.650;2024-03-29T21:00:09;4.10;;;2.70;;
7475;SDS011;3779;49.216;8.650;2024-03-29T21:02:56;3.07;;;2.57;;
7475;SDS011;3779;49.216;8.650;2024-03-29T21:06:02;3.33;;;3.03;;
7475;SDS011;3779;49.216;8.650;2024-03-29T21:08:50;3.03;;;2.50;;
7475;SDS011;3779;49.216;8.650;2024-03-29T21:11:38;3.37;;;2.80;;
7475;SDS011;3779;49.216;8.650;2024-03-29T21:14:24;4.67;;;4.03;;
7475;SDS011;3779;49.216;8.650;2024-03-29T21:17:11;5.23;;;3.20;;
7475;SDS011;3779;49.216;8.650;2024-03-29T21:19:58;3.50;;;3.10;;
7475;SDS011;3779;49.216;8.650;2024-03-29T21:22:44;4.90;;;3.73;;
7475;SDS011;3779;49.216;8.650;2024-03-29T21:25:30;3.90;;;3.33;;
7475;SDS011;3779;49.216;8.650;2024-03-29T21:28:19;5.80;;;4.23;;
7475;SDS011;3779;49.216;8.650;2024-03-29T21:31:05;4.00;;;3.60;;
7475;SDS011;3779;49.216;8.650;2024-03-29T21:34:11;6.10;;;4.17;;
7475;SDS011;3779;49.216;8.650;2024-03-29T21:36:58;4.07;;;3.67;;
7475;SDS011;3779;49.216;8.650;2024-03-29T21:39:45;5.77;;;3.90;;
7475;SDS011;3779;49.216;8.650;2024-03-29T21:42:31;4.30;;;3.80;;
7475;SDS011;3779;49.216;8.650;2024-03-29T21:45:19;4.63;;;3.93;;
7475;SDS011;3779;49.216;8.650;2024-03-29T21:48:09;5.20;;;3.80;;
7475;SDS011;3779;49.216;8.650;2024-03-29T21:50:56;6.63;;;3.83;;
7475;SDS011;3779;49.216;8.650;2024-03-29T21:53:43;3.80;;;3.40;;
7475;SDS011;3779;49.216;8.650;2024-03-29T21:56:31;4.87;;;3.47;;
7475;SDS011;3779;49.216;8.650;2024-03-29T21:59:18;3.33;;;3.03;;
7475;SDS011;3779;49.216;8.650;2024-03-29T22:02:07;5.57;;;4.00;;
7475;SDS011;3779;49.216;8.650;2024-03-29T22:04:58;4.23;;;3.80;;
7475;SDS011;3779;49.216;8.650;2024-03-29T22:07:45;9.37;;;4.00;;
7475;SDS011;3779;49.216;8.650;2024-03-29T22:10:32;6.45;;;3.70;;
7475;SDS011;3779;49.216;8.650;2024-03-29T22:13:19;4.23;;;3.83;;
7475;SDS011;3779;49.216;8.650;2024-03-29T22:16:06;3.67;;;3.37;;
7475;SDS011;3779;49.216;8.650;2024-03-29T22:18:52;4.20;;;3.60;;
7475;SDS011;3779;49.216;8.650;2024-03-29T22:21:37;4.23;;;3.60;;
7475;SDS011;3779;49.216;8.650;2024-03-29T22:24:25;3.67;;;3.33;;
7475;SDS011;3779;49.216;8.650;2024-03-29T22:27:12;4.53;;;3.27;;
7475;SDS011;3779;49.216;8.650;2024-03-29T22:29:59;3.93;;;3.60;;
7475;SDS011;3779;49.216;8.650;2024-03-29T22:32:45;3.67;;;3.37;;
7475;SDS011;3779;49.216;8.650;2024-03-29T22:35:31;3.60;;;3.30;;
7475;SDS011;3779;49.216;8.650;2024-03-29T22:38:17;5.40;;;3.75;;
7475;SDS011;3779;49.216;8.650;2024-03-29T22:41:03;3.90;;;3.60;;
7475;SDS011;3779;49.216;8.650;2024-03-29T22:43:49;4.27;;;3.87;;
7475;SDS011;3779;49.216;8.650;2024-03-29T22:46:35;3.97;;;3.57;;
7475;SDS011;3779;49.216;8.650;2024-03-29T22:49:21;4.00;;;3.60;;
7475;SDS011;3779;49.216;8.650;2024-03-29T22:52:07;4.23;;;3.83;;
7475;SDS011;3779;49.216;8.650;2024-03-29T22:54:53;4.73;;;4.30;;
7475;SDS011;3779;49.216;8.650;2024-03-29T22:57:39;5.17;;;4.30;;
7475;SDS011;3779;49.216;8.650;2024-03-29T23:00:25;4.57;;;3.70;;
7475;SDS011;3779;49.216;8.650;2024-03-29T23:03:11;4.70;;;4.20;;
7475;SDS011;3779;49.216;8.650;2024-03-29T23:05:57;4.37;;;3.97;;
7475;SDS011;3779;49.216;8.650;2024-03-29T23:08:43;4.57;;;4.13;;
7475;SDS011;3779;49.216;8.650;2024-03-29T23:11:29;3.80;;;3.50;;
7475;SDS011;3779;49.216;8.650;2024-03-29T23:14:15;4.40;;;4.00;;
7475;SDS011;3779;49.216;8.650;2024-03-29T23:17:03;6.47;;;4.20;;
7475;SDS011;3779;49.216;8.650;2024-03-29T23:19:52;4.13;;;3.70;;
7475;SDS011;3779;49.216;8.650;2024-03-29T23:22:38;3.80;;;3.50;;
7475;SDS011;3779;49.216;8.650;2024-03-29T23:28:27;4.53;;;3.50;;
7475;SDS011;3779;49.216;8.650;2024-03-29T23:31:12;3.47;;;2.73;;
7475;SDS011;3779;49.216;8.650;2024-03-29T23:33:58;3.58;;;3.28;;
7475;SDS011;3779;49.216;8.650;2024-03-29T23:36:44;3.43;;;2.47;;
7475;SDS011;3779;49.216;8.650;2024-03-29T23:39:30;3.17;;;2.83;;
7475;SDS011;3779;49.216;8.650;2024-03-29T23:42:15;2.93;;;2.63;;
7475;SDS011;3779;49.216;8.650;2024-03-29T23:45:02;4.43;;;3.05;;
7475;SDS011;3779;49.216;8.650;2024-03-29T23:47:47;4.67;;;3.10;;
7475;SDS011;3779;49.216;8.650;2024-03-29T23:50:33;2.97;;;2.70;;
7475;SDS011;3779;49.216;8.650;2024-03-29T23:53:19;2.70;;;2.50;;
7475;SDS011;3779;49.216;8.650;2024-03-29T23:56:05;2.90;;;2.70;;
